sensor_id;sensor_type;location;lat;lon;timestamp;P1;durP1;ratioP1;P2;durP2;ratioP2
58354;SDS011;44160;49.080;19.302;2023-07-20T00:00:52;6.90;;;4.53;;
58354;SDS011;44160;49.080;19.302;2023-07-20T00:03:18;8.50;;;4.05;;
58354;SDS011;44160;49.080;19.302;2023-07-20T00:05:50;6.72;;;3.88;;
58354;SDS011;44160;49.080;19.302;2023-07-20T00:08:16;5.65;;;4.03;;
58354;SDS011;44160;49.080;19.302;2023-07-20T00:10:43;8.52;;;4.32;;
58354;SDS011;44160;49.080;19.302;2023-07-20T00:13:09;5.90;;;3.95;;
58354;SDS011;44160;49.080;19.302;2023-07-20T00:15:35;6.28;;;4.00;;
58354;SDS011;44160;49.080;19.302;2023-07-20T00:18:02;7.82;;;4.43;;
58354;SDS011;44160;49.080;19.302;2023-07-20T00:20:28;9.43;;;4.30;;
58354;SDS011;44160;49.080;19.302;2023-07-20T00:22:54;7.40;;;4.10;;
58354;SDS011;44160;49.080;19.302;2023-07-20T00:25:23;7.65;;;4.00;;
58354;SDS011;44160;49.080;19.302;2023-07-20T00:27:49;9.55;;;4.38;;
58354;SDS011;44160;49.080;19.302;2023-07-20T00:30:15;8.85;;;4.50;;
58354;SDS011;44160;49.080;19.302;2023-07-20T00:32:44;6.78;;;4.07;;
58354;SDS011;44160;49.080;19.302;2023-07-20T00:35:11;5.57;;;4.00;;
58354;SDS011;44160;49.080;19.302;2023-07-20T00:37:37;9.40;;;4.88;;
58354;SDS011;44160;49.080;19.302;2023-07-20T00:40:03;10.20;;;3.88;;
58354;SDS011;44160;49.080;19.302;2023-07-20T00:42:30;5.78;;;4.28;;
58354;SDS011;44160;49.080;19.302;2023-07-20T00:44:56;13.25;;;4.47;;
58354;SDS011;44160;49.080;19.302;2023-07-20T00:47:22;8.05;;;3.70;;
58354;SDS011;44160;49.080;19.302;2023-07-20T00:49:48;7.78;;;4.80;;
58354;SDS011;44160;49.080;19.302;2023-07-20T00:52:14;5.55;;;3.92;;
58354;SDS011;44160;49.080;19.302;2023-07-20T00:54:41;8.07;;;4.72;;
58354;SDS011;44160;49.080;19.302;2023-07-20T00:57:07;6.03;;;4.10;;
58354;SDS011;44160;49.080;19.302;2023-07-20T00:59:36;6.93;;;3.60;;
58354;SDS011;44160;49.080;19.302;2023-07-20T01:02:02;7.93;;;4.55;;
58354;SDS011;44160;49.080;19.302;2023-07-20T01:04:28;12.90;;;4.85;;
58354;SDS011;44160;49.080;19.302;2023-07-20T01:07:03;5.63;;;4.10;;
58354;SDS011;44160;49.080;19.302;2023-07-20T01:09:44;8.45;;;3.90;;
58354;SDS011;44160;49.080;19.302;2023-07-20T01:14:56;9.35;;;5.20;;
58354;SDS011;44160;49.080;19.302;2023-07-20T01:17:22;11.35;;;4.70;;
58354;SDS011;44160;49.080;19.302;2023-07-20T01:19:49;7.15;;;3.95;;
58354;SDS011;44160;49.080;19.302;2023-07-20T01:27:28;7.65;;;4.82;;
58354;SDS011;44160;49.080;19.302;2023-07-20T01:32:42;6.50;;;4.10;;
58354;SDS011;44160;49.080;19.302;2023-07-20T01:35:09;6.53;;;4.40;;
58354;SDS011;44160;49.080;19.302;2023-07-20T01:37:39;9.17;;;5.03;;
58354;SDS011;44160;49.080;19.302;2023-07-20T01:40:06;12.10;;;4.75;;
58354;SDS011;44160;49.080;19.302;2023-07-20T01:42:32;7.60;;;4.45;;
58354;SDS011;44160;49.080;19.302;2023-07-20T01:44:59;8.50;;;4.65;;
58354;SDS011;44160;49.080;19.302;2023-07-20T01:47:25;7.85;;;4.47;;
58354;SDS011;44160;49.080;19.302;2023-07-20T01:49:51;10.68;;;4.53;;
58354;SDS011;44160;49.080;19.302;2023-07-20T01:52:17;7.70;;;4.30;;
58354;SDS011;44160;49.080;19.302;2023-07-20T01:54:43;12.50;;;4.93;;
58354;SDS011;44160;49.080;19.302;2023-07-20T01:57:09;11.75;;;4.53;;
58354;SDS011;44160;49.080;19.302;2023-07-20T01:59:35;11.57;;;4.35;;
58354;SDS011;44160;49.080;19.302;2023-07-20T02:02:01;9.32;;;4.50;;
58354;SDS011;44160;49.080;19.302;2023-07-20T02:04:27;9.73;;;5.07;;
58354;SDS011;44160;49.080;19.302;2023-07-20T02:06:53;12.38;;;4.45;;
58354;SDS011;44160;49.080;19.302;2023-07-20T02:09:19;13.20;;;4.50;;
58354;SDS011;44160;49.080;19.302;2023-07-20T02:11:45;6.43;;;4.55;;
58354;SDS011;44160;49.080;19.302;2023-07-20T02:14:11;10.50;;;4.13;;
58354;SDS011;44160;49.080;19.302;2023-07-20T02:16:37;7.97;;;4.38;;
58354;SDS011;44160;49.080;19.302;2023-07-20T02:19:03;9.07;;;4.57;;
58354;SDS011;44160;49.080;19.302;2023-07-20T02:21:31;12.20;;;4.85;;
58354;SDS011;44160;49.080;19.302;2023-07-20T02:23:58;10.35;;;5.28;;
58354;SDS011;44160;49.080;19.302;2023-07-20T02:26:25;9.13;;;5.20;;
58354;SDS011;44160;49.080;19.302;2023-07-20T02:28:51;9.20;;;4.72;;
58354;SDS011;44160;49.080;19.302;2023-07-20T02:31:17;7.78;;;4.47;;
58354;SDS011;44160;49.080;19.302;2023-07-20T02:33:44;11.02;;;4.75;;
58354;SDS011;44160;49.080;19.302;2023-07-20T02:36:10;10.95;;;4.93;;
58354;SDS011;44160;49.080;19.302;2023-07-20T02:38:36;8.18;;;4.30;;
58354;SDS011;44160;49.080;19.302;2023-07-20T02:41:02;8.23;;;4.30;;
58354;SDS011;44160;49.080;19.302;2023-07-20T02:43:28;5.50;;;4.15;;
58354;SDS011;44160;49.080;19.302;2023-07-20T02:45:54;8.68;;;4.72;;
58354;SDS011;44160;49.080;19.302;2023-07-20T02:48:20;9.30;;;5.00;;
58354;SDS011;44160;49.080;19.302;2023-07-20T02:50:46;8.90;;;4.90;;
58354;SDS011;44160;49.080;19.302;2023-07-20T02:53:12;5.13;;;4.10;;
58354;SDS011;44160;49.080;19.302;2023-07-20T02:55:38;7.75;;;4.50;;
58354;SDS011;44160;49.080;19.302;2023-07-20T02:58:04;7.68;;;4.32;;
58354;SDS011;44160;49.080;19.302;2023-07-20T03:00:30;7.95;;;5.38;;
58354;SDS011;44160;49.080;19.302;2023-07-20T03:02:57;6.90;;;4.22;;
58354;SDS011;44160;49.080;19.302;2023-07-20T03:05:27;10.60;;;4.63;;
58354;SDS011;44160;49.080;19.302;2023-07-20T03:07:53;9.85;;;4.53;;
58354;SDS011;44160;49.080;19.302;2023-07-20T03:10:19;6.35;;;4.45;;
58354;SDS011;44160;49.080;19.302;2023-07-20T03:12:45;6.97;;;4.63;;
58354;SDS011;44160;49.080;19.302;2023-07-20T03:15:11;8.43;;;4.35;;
58354;SDS011;44160;49.080;19.302;2023-07-20T03:17:37;7.80;;;5.10;;
58354;SDS011;44160;49.080;19.302;2023-07-20T03:20:03;6.70;;;5.10;;
58354;SDS011;44160;49.080;19.302;2023-07-20T03:22:33;5.83;;;4.80;;
58354;SDS011;44160;49.080;19.302;2023-07-20T03:24:59;7.43;;;4.57;;
58354;SDS011;44160;49.080;19.302;2023-07-20T03:27:25;10.43;;;4.30;;
58354;SDS011;44160;49.080;19.302;2023-07-20T03:29:54;7.07;;;4.80;;
58354;SDS011;44160;49.080;19.302;2023-07-20T03:32:20;7.90;;;4.43;;
58354;SDS011;44160;49.080;19.302;2023-07-20T03:34:46;9.85;;;5.00;;
58354;SDS011;44160;49.080;19.302;2023-07-20T03:37:12;7.40;;;4.53;;
58354;SDS011;44160;49.080;19.302;2023-07-20T03:39:38;10.65;;;5.00;;
58354;SDS011;44160;49.080;19.302;2023-07-20T03:42:05;7.05;;;4.90;;
58354;SDS011;44160;49.080;19.302;2023-07-20T03:44:32;6.75;;;4.13;;
58354;SDS011;44160;49.080;19.302;2023-07-20T03:46:58;6.47;;;4.20;;
58354;SDS011;44160;49.080;19.302;2023-07-20T03:49:24;9.20;;;4.47;;
58354;SDS011;44160;49.080;19.302;2023-07-20T03:51:50;5.90;;;4.43;;
58354;SDS011;44160;49.080;19.302;2023-07-20T03:54:17;6.45;;;4.38;;
58354;SDS011;44160;49.080;19.302;2023-07-20T03:56:44;7.47;;;4.45;;
58354;SDS011;44160;49.080;19.302;2023-07-20T03:59:10;7.30;;;4.40;;
58354;SDS011;44160;49.080;19.302;2023-07-20T04:01:36;6.82;;;4.38;;
58354;SDS011;44160;49.080;19.302;2023-07-20T04:04:06;10.95;;;4.68;;
58354;SDS011;44160;49.080;19.302;2023-07-20T04:06:33;6.38;;;3.97;;
58354;SDS011;44160;49.080;19.302;2023-07-20T04:08:59;6.85;;;4.47;;
58354;SDS011;44160;49.080;19.302;2023-07-20T04:11:25;5.82;;;3.92;;
58354;SDS011;44160;49.080;19.302;2023-07-20T04:13:51;7.72;;;4.13;;
58354;SDS011;44160;49.080;19.302;2023-07-20T04:16:17;7.68;;;4.63;;
58354;SDS011;44160;49.080;19.302;2023-07-20T04:18:44;3.85;;;3.45;;
58354;SDS011;44160;49.080;19.302;2023-07-20T04:21:11;5.95;;;3.72;;
58354;SDS011;44160;49.080;19.302;2023-07-20T04:23:37;6.03;;;4.45;;
58354;SDS011;44160;49.080;19.302;2023-07-20T04:26:03;10.48;;;5.22;;
58354;SDS011;44160;49.080;19.302;2023-07-20T04:28:29;6.10;;;4.47;;
58354;SDS011;44160;49.080;19.302;2023-07-20T04:31:08;8.80;;;5.40;;
58354;SDS011;44160;49.080;19.302;2023-07-20T04:33:35;8.25;;;4.82;;
58354;SDS011;44160;49.080;19.302;2023-07-20T04:36:01;8.23;;;5.28;;
58354;SDS011;44160;49.080;19.302;2023-07-20T04:38:27;8.52;;;5.00;;
58354;SDS011;44160;49.080;19.302;2023-07-20T04:40:53;7.25;;;4.63;;
58354;SDS011;44160;49.080;19.302;2023-07-20T04:43:19;12.65;;;5.00;;
58354;SDS011;44160;49.080;19.302;2023-07-20T04:45:45;8.25;;;5.25;;
58354;SDS011;44160;49.080;19.302;2023-07-20T04:48:12;6.75;;;4.32;;
58354;SDS011;44160;49.080;19.302;2023-07-20T04:50:42;6.07;;;4.57;;
58354;SDS011;44160;49.080;19.302;2023-07-20T04:53:09;5.72;;;4.20;;
58354;SDS011;44160;49.080;19.302;2023-07-20T04:55:36;9.98;;;4.80;;
58354;SDS011;44160;49.080;19.302;2023-07-20T04:58:03;5.63;;;4.40;;
58354;SDS011;44160;49.080;19.302;2023-07-20T05:00:29;8.48;;;4.45;;
58354;SDS011;44160;49.080;19.302;2023-07-20T05:02:55;6.35;;;3.65;;
58354;SDS011;44160;49.080;19.302;2023-07-20T05:05:22;7.20;;;3.90;;
58354;SDS011;44160;49.080;19.302;2023-07-20T05:07:48;6.28;;;4.45;;
58354;SDS011;44160;49.080;19.302;2023-07-20T05:10:14;8.15;;;3.90;;
58354;SDS011;44160;49.080;19.302;2023-07-20T05:12:40;6.80;;;4.18;;
58354;SDS011;44160;49.080;19.302;2023-07-20T05:15:06;8.30;;;3.58;;
58354;SDS011;44160;49.080;19.302;2023-07-20T05:17:32;7.28;;;4.18;;
58354;SDS011;44160;49.080;19.302;2023-07-20T05:19:58;5.65;;;3.85;;
58354;SDS011;44160;49.080;19.302;2023-07-20T05:22:26;9.57;;;3.92;;
58354;SDS011;44160;49.080;19.302;2023-07-20T05:24:52;8.02;;;3.65;;
58354;SDS011;44160;49.080;19.302;2023-07-20T05:27:18;8.60;;;4.22;;
58354;SDS011;44160;49.080;19.302;2023-07-20T05:29:44;5.85;;;3.42;;
58354;SDS011;44160;49.080;19.302;2023-07-20T05:32:10;8.48;;;4.10;;
58354;SDS011;44160;49.080;19.302;2023-07-20T05:34:36;6.38;;;3.65;;
58354;SDS011;44160;49.080;19.302;2023-07-20T05:37:02;7.85;;;3.45;;
58354;SDS011;44160;49.080;19.302;2023-07-20T05:39:28;8.27;;;3.35;;
58354;SDS011;44160;49.080;19.302;2023-07-20T05:41:54;7.43;;;3.35;;
58354;SDS011;44160;49.080;19.302;2023-07-20T05:44:20;6.68;;;3.08;;
58354;SDS011;44160;49.080;19.302;2023-07-20T05:46:46;4.32;;;2.97;;
58354;SDS011;44160;49.080;19.302;2023-07-20T05:49:12;5.75;;;3.30;;
58354;SDS011;44160;49.080;19.302;2023-07-20T05:51:39;5.32;;;3.33;;
58354;SDS011;44160;49.080;19.302;2023-07-20T05:54:05;4.63;;;2.70;;
58354;SDS011;44160;49.080;19.302;2023-07-20T05:56:31;5.68;;;2.90;;
58354;SDS011;44160;49.080;19.302;2023-07-20T05:58:57;4.05;;;2.60;;
58354;SDS011;44160;49.080;19.302;2023-07-20T06:01:23;6.55;;;2.95;;
58354;SDS011;44160;49.080;19.302;2023-07-20T06:03:52;5.22;;;2.95;;
58354;SDS011;44160;49.080;19.302;2023-07-20T06:06:18;3.10;;;2.50;;
58354;SDS011;44160;49.080;19.302;2023-07-20T06:08:44;4.82;;;2.65;;
58354;SDS011;44160;49.080;19.302;2023-07-20T06:11:11;6.15;;;2.65;;
58354;SDS011;44160;49.080;19.302;2023-07-20T06:13:37;6.90;;;2.63;;
58354;SDS011;44160;49.080;19.302;2023-07-20T06:16:03;5.57;;;3.00;;
58354;SDS011;44160;49.080;19.302;2023-07-20T06:18:29;5.05;;;2.55;;
58354;SDS011;44160;49.080;19.302;2023-07-20T06:20:56;5.75;;;2.88;;
58354;SDS011;44160;49.080;19.302;2023-07-20T06:23:22;5.25;;;2.67;;
58354;SDS011;44160;49.080;19.302;2023-07-20T06:25:48;5.28;;;2.50;;
58354;SDS011;44160;49.080;19.302;2023-07-20T06:28:14;6.07;;;2.70;;
58354;SDS011;44160;49.080;19.302;2023-07-20T06:30:42;9.15;;;2.28;;
58354;SDS011;44160;49.080;19.302;2023-07-20T06:33:08;5.25;;;2.53;;
58354;SDS011;44160;49.080;19.302;2023-07-20T06:35:34;6.35;;;2.70;;
58354;SDS011;44160;49.080;19.302;2023-07-20T06:38:03;4.40;;;2.40;;
58354;SDS011;44160;49.080;19.302;2023-07-20T06:40:30;4.35;;;2.70;;
58354;SDS011;44160;49.080;19.302;2023-07-20T06:42:56;3.22;;;2.10;;
58354;SDS011;44160;49.080;19.302;2023-07-20T06:45:23;4.00;;;2.25;;
58354;SDS011;44160;49.080;19.302;2023-07-20T06:47:49;5.35;;;2.47;;
58354;SDS011;44160;49.080;19.302;2023-07-20T06:50:15;2.80;;;2.10;;
58354;SDS011;44160;49.080;19.302;2023-07-20T06:52:41;3.92;;;2.30;;
58354;SDS011;44160;49.080;19.302;2023-07-20T06:55:07;5.80;;;2.45;;
58354;SDS011;44160;49.080;19.302;2023-07-20T06:57:33;4.82;;;2.38;;
58354;SDS011;44160;49.080;19.302;2023-07-20T06:59:59;3.78;;;2.40;;
58354;SDS011;44160;49.080;19.302;2023-07-20T07:02:25;4.00;;;2.85;;
58354;SDS011;44160;49.080;19.302;2023-07-20T07:04:51;6.25;;;2.25;;
58354;SDS011;44160;49.080;19.302;2023-07-20T07:07:17;3.72;;;2.28;;
58354;SDS011;44160;49.080;19.302;2023-07-20T07:09:43;5.38;;;2.38;;
58354;SDS011;44160;49.080;19.302;2023-07-20T07:12:09;2.75;;;2.22;;
58354;SDS011;44160;49.080;19.302;2023-07-20T07:14:35;3.67;;;2.45;;
58354;SDS011;44160;49.080;19.302;2023-07-20T07:17:01;3.88;;;2.20;;
58354;SDS011;44160;49.080;19.302;2023-07-20T07:19:28;3.83;;;2.30;;
58354;SDS011;44160;49.080;19.302;2023-07-20T07:21:57;5.70;;;2.50;;
58354;SDS011;44160;49.080;19.302;2023-07-20T07:24:23;8.07;;;2.33;;
58354;SDS011;44160;49.080;19.302;2023-07-20T07:26:49;4.03;;;2.10;;
58354;SDS011;44160;49.080;19.302;2023-07-20T07:29:15;5.05;;;2.47;;
58354;SDS011;44160;49.080;19.302;2023-07-20T07:31:41;5.18;;;2.20;;
58354;SDS011;44160;49.080;19.302;2023-07-20T07:34:07;4.10;;;2.25;;
58354;SDS011;44160;49.080;19.302;2023-07-20T07:36:33;3.63;;;2.80;;
58354;SDS011;44160;49.080;19.302;2023-07-20T07:38:59;4.85;;;2.50;;
58354;SDS011;44160;49.080;19.302;2023-07-20T07:41:25;3.75;;;2.22;;
58354;SDS011;44160;49.080;19.302;2023-07-20T07:43:51;4.47;;;2.67;;
58354;SDS011;44160;49.080;19.302;2023-07-20T07:46:17;5.43;;;2.35;;
58354;SDS011;44160;49.080;19.302;2023-07-20T07:48:43;3.75;;;2.30;;
58354;SDS011;44160;49.080;19.302;2023-07-20T07:51:09;4.85;;;2.55;;
58354;SDS011;44160;49.080;19.302;2023-07-20T07:53:35;5.43;;;2.65;;
58354;SDS011;44160;49.080;19.302;2023-07-20T07:56:02;3.63;;;2.42;;
58354;SDS011;44160;49.080;19.302;2023-07-20T07:58:29;2.40;;;1.88;;
58354;SDS011;44160;49.080;19.302;2023-07-20T08:00:56;3.40;;;2.22;;
58354;SDS011;44160;49.080;19.302;2023-07-20T08:03:22;3.88;;;2.33;;
58354;SDS011;44160;49.080;19.302;2023-07-20T08:05:49;4.82;;;2.15;;
58354;SDS011;44160;49.080;19.302;2023-07-20T08:08:15;4.57;;;2.58;;
58354;SDS011;44160;49.080;19.302;2023-07-20T08:10:41;5.65;;;2.42;;
58354;SDS011;44160;49.080;19.302;2023-07-20T08:13:07;3.20;;;1.98;;
58354;SDS011;44160;49.080;19.302;2023-07-20T08:15:33;3.30;;;2.15;;
58354;SDS011;44160;49.080;19.302;2023-07-20T08:17:59;4.18;;;2.55;;
58354;SDS011;44160;49.080;19.302;2023-07-20T08:20:25;4.13;;;2.47;;
58354;SDS011;44160;49.080;19.302;2023-07-20T08:22:54;4.30;;;2.38;;
58354;SDS011;44160;49.080;19.302;2023-07-20T08:25:20;3.00;;;2.10;;
58354;SDS011;44160;49.080;19.302;2023-07-20T08:27:46;4.22;;;2.53;;
58354;SDS011;44160;49.080;19.302;2023-07-20T08:30:13;3.65;;;2.17;;
58354;SDS011;44160;49.080;19.302;2023-07-20T08:32:39;4.85;;;2.08;;
58354;SDS011;44160;49.080;19.302;2023-07-20T08:35:05;3.25;;;2.33;;
58354;SDS011;44160;49.080;19.302;2023-07-20T08:37:31;8.27;;;2.15;;
58354;SDS011;44160;49.080;19.302;2023-07-20T08:39:57;4.22;;;1.85;;
58354;SDS011;44160;49.080;19.302;2023-07-20T08:42:23;3.50;;;1.90;;
58354;SDS011;44160;49.080;19.302;2023-07-20T08:44:49;4.28;;;2.05;;
58354;SDS011;44160;49.080;19.302;2023-07-20T08:47:17;4.72;;;1.92;;
58354;SDS011;44160;49.080;19.302;2023-07-20T08:49:44;2.53;;;2.10;;
58354;SDS011;44160;49.080;19.302;2023-07-20T08:52:13;3.45;;;1.90;;
58354;SDS011;44160;49.080;19.302;2023-07-20T08:54:39;3.92;;;2.58;;
58354;SDS011;44160;49.080;19.302;2023-07-20T08:57:05;2.83;;;1.83;;
58354;SDS011;44160;49.080;19.302;2023-07-20T08:59:32;2.65;;;1.83;;
58354;SDS011;44160;49.080;19.302;2023-07-20T09:02:00;4.28;;;1.75;;
58354;SDS011;44160;49.080;19.302;2023-07-20T09:04:27;4.72;;;1.95;;
58354;SDS011;44160;49.080;19.302;2023-07-20T09:06:53;3.10;;;1.92;;
58354;SDS011;44160;49.080;19.302;2023-07-20T09:09:20;2.90;;;2.03;;
58354;SDS011;44160;49.080;19.302;2023-07-20T09:11:47;2.92;;;2.22;;
58354;SDS011;44160;49.080;19.302;2023-07-20T09:14:14;7.00;;;1.80;;
58354;SDS011;44160;49.080;19.302;2023-07-20T09:16:50;4.80;;;2.13;;
58354;SDS011;44160;49.080;19.302;2023-07-20T09:19:16;4.70;;;1.85;;
58354;SDS011;44160;49.080;19.302;2023-07-20T09:21:49;5.18;;;2.10;;
58354;SDS011;44160;49.080;19.302;2023-07-20T09:24:16;2.33;;;1.88;;
58354;SDS011;44160;49.080;19.302;2023-07-20T09:26:43;2.90;;;1.80;;
58354;SDS011;44160;49.080;19.302;2023-07-20T09:29:13;3.88;;;1.80;;
58354;SDS011;44160;49.080;19.302;2023-07-20T09:31:39;5.05;;;1.98;;
58354;SDS011;44160;49.080;19.302;2023-07-20T09:34:06;4.47;;;1.58;;
58354;SDS011;44160;49.080;19.302;2023-07-20T09:36:33;5.30;;;1.48;;
58354;SDS011;44160;49.080;19.302;2023-07-20T09:39:00;3.13;;;2.00;;
58354;SDS011;44160;49.080;19.302;2023-07-20T09:41:29;2.75;;;1.75;;
58354;SDS011;44160;49.080;19.302;2023-07-20T09:43:55;3.42;;;1.33;;
58354;SDS011;44160;49.080;19.302;2023-07-20T09:46:22;2.30;;;1.40;;
58354;SDS011;44160;49.080;19.302;2023-07-20T09:48:53;1.45;;;1.20;;
58354;SDS011;44160;49.080;19.302;2023-07-20T09:51:23;3.85;;;1.75;;
58354;SDS011;44160;49.080;19.302;2023-07-20T09:53:51;4.93;;;1.73;;
58354;SDS011;44160;49.080;19.302;2023-07-20T09:56:19;5.50;;;1.70;;
58354;SDS011;44160;49.080;19.302;2023-07-20T09:58:46;2.25;;;1.48;;
58354;SDS011;44160;49.080;19.302;2023-07-20T10:01:12;3.53;;;1.45;;
58354;SDS011;44160;49.080;19.302;2023-07-20T10:03:39;3.70;;;1.30;;
58354;SDS011;44160;49.080;19.302;2023-07-20T10:06:08;3.30;;;1.80;;
58354;SDS011;44160;49.080;19.302;2023-07-20T10:08:38;2.33;;;1.40;;
58354;SDS011;44160;49.080;19.302;2023-07-20T10:11:05;2.25;;;1.20;;
58354;SDS011;44160;49.080;19.302;2023-07-20T10:13:31;3.85;;;1.30;;
58354;SDS011;44160;49.080;19.302;2023-07-20T10:16:10;5.60;;;1.38;;
58354;SDS011;44160;49.080;19.302;2023-07-20T10:21:10;2.60;;;1.60;;
58354;SDS011;44160;49.080;19.302;2023-07-20T10:23:36;1.65;;;1.08;;
58354;SDS011;44160;49.080;19.302;2023-07-20T10:26:05;2.92;;;1.35;;
58354;SDS011;44160;49.080;19.302;2023-07-20T10:28:33;1.83;;;1.02;;
58354;SDS011;44160;49.080;19.302;2023-07-20T10:30:59;4.63;;;1.30;;
58354;SDS011;44160;49.080;19.302;2023-07-20T10:33:25;3.63;;;1.17;;
58354;SDS011;44160;49.080;19.302;2023-07-20T10:36:10;2.08;;;1.48;;
58354;SDS011;44160;49.080;19.302;2023-07-20T10:38:40;2.95;;;1.00;;
58354;SDS011;44160;49.080;19.302;2023-07-20T10:41:27;2.10;;;1.33;;
58354;SDS011;44160;49.080;19.302;2023-07-20T10:47:01;2.30;;;1.50;;
58354;SDS011;44160;49.080;19.302;2023-07-20T10:49:28;2.00;;;1.33;;
58354;SDS011;44160;49.080;19.302;2023-07-20T10:52:09;2.17;;;1.50;;
58354;SDS011;44160;49.080;19.302;2023-07-20T10:54:46;3.35;;;1.55;;
58354;SDS011;44160;49.080;19.302;2023-07-20T10:57:23;1.73;;;1.00;;
58354;SDS011;44160;49.080;19.302;2023-07-20T10:59:49;3.78;;;1.40;;
58354;SDS011;44160;49.080;19.302;2023-07-20T11:02:19;2.17;;;1.48;;
58354;SDS011;44160;49.080;19.302;2023-07-20T11:04:46;1.97;;;1.40;;
58354;SDS011;44160;49.080;19.302;2023-07-20T11:07:15;2.38;;;1.52;;
58354;SDS011;44160;49.080;19.302;2023-07-20T11:09:45;3.80;;;1.70;;
58354;SDS011;44160;49.080;19.302;2023-07-20T11:12:15;2.00;;;1.50;;
58354;SDS011;44160;49.080;19.302;2023-07-20T11:14:42;1.70;;;1.40;;
58354;SDS011;44160;49.080;19.302;2023-07-20T11:17:15;3.67;;;1.50;;
58354;SDS011;44160;49.080;19.302;2023-07-20T11:19:47;2.38;;;1.38;;
58354;SDS011;44160;49.080;19.302;2023-07-20T11:22:13;1.77;;;1.45;;
58354;SDS011;44160;49.080;19.302;2023-07-20T11:24:42;6.68;;;1.70;;
58354;SDS011;44160;49.080;19.302;2023-07-20T11:27:08;2.10;;;1.23;;
58354;SDS011;44160;49.080;19.302;2023-07-20T11:29:37;3.35;;;1.98;;
58354;SDS011;44160;49.080;19.302;2023-07-20T11:32:03;2.63;;;1.50;;
58354;SDS011;44160;49.080;19.302;2023-07-20T11:34:30;2.38;;;1.30;;
58354;SDS011;44160;49.080;19.302;2023-07-20T11:37:00;1.98;;;1.33;;
58354;SDS011;44160;49.080;19.302;2023-07-20T11:39:36;1.77;;;1.23;;
58354;SDS011;44160;49.080;19.302;2023-07-20T11:42:02;2.83;;;1.75;;
58354;SDS011;44160;49.080;19.302;2023-07-20T11:44:29;3.10;;;1.20;;
58354;SDS011;44160;49.080;19.302;2023-07-20T11:47:06;2.30;;;1.42;;
58354;SDS011;44160;49.080;19.302;2023-07-20T11:49:41;2.70;;;1.33;;
58354;SDS011;44160;49.080;19.302;2023-07-20T11:52:14;3.08;;;1.77;;
58354;SDS011;44160;49.080;19.302;2023-07-20T11:54:41;2.25;;;1.27;;
58354;SDS011;44160;49.080;19.302;2023-07-20T11:57:15;2.22;;;1.50;;
58354;SDS011;44160;49.080;19.302;2023-07-20T11:59:57;1.88;;;1.30;;
58354;SDS011;44160;49.080;19.302;2023-07-20T12:02:28;5.55;;;1.52;;
58354;SDS011;44160;49.080;19.302;2023-07-20T12:04:54;2.83;;;1.63;;
58354;SDS011;44160;49.080;19.302;2023-07-20T12:07:21;1.85;;;1.10;;
58354;SDS011;44160;49.080;19.302;2023-07-20T12:12:49;3.90;;;1.20;;
58354;SDS011;44160;49.080;19.302;2023-07-20T12:17:50;2.47;;;1.42;;
58354;SDS011;44160;49.080;19.302;2023-07-20T12:23:13;4.90;;;1.30;;
58354;SDS011;44160;49.080;19.302;2023-07-20T12:28:10;1.85;;;0.93;;
58354;SDS011;44160;49.080;19.302;2023-07-20T12:30:37;1.30;;;1.10;;
58354;SDS011;44160;49.080;19.302;2023-07-20T12:33:07;2.17;;;1.20;;
58354;SDS011;44160;49.080;19.302;2023-07-20T12:35:33;1.20;;;1.02;;
58354;SDS011;44160;49.080;19.302;2023-07-20T12:38:00;1.85;;;1.02;;
58354;SDS011;44160;49.080;19.302;2023-07-20T12:40:26;3.83;;;1.00;;
58354;SDS011;44160;49.080;19.302;2023-07-20T12:42:52;1.88;;;1.30;;
58354;SDS011;44160;49.080;19.302;2023-07-20T12:45:20;2.13;;;1.23;;
58354;SDS011;44160;49.080;19.302;2023-07-20T12:47:53;1.58;;;1.13;;
58354;SDS011;44160;49.080;19.302;2023-07-20T12:50:20;2.08;;;1.45;;
58354;SDS011;44160;49.080;19.302;2023-07-20T12:52:48;2.28;;;1.30;;
58354;SDS011;44160;49.080;19.302;2023-07-20T12:55:17;4.25;;;1.50;;
58354;SDS011;44160;49.080;19.302;2023-07-20T12:57:45;4.68;;;1.30;;
58354;SDS011;44160;49.080;19.302;2023-07-20T13:00:15;2.67;;;1.52;;
58354;SDS011;44160;49.080;19.302;2023-07-20T13:02:41;2.13;;;0.95;;
58354;SDS011;44160;49.080;19.302;2023-07-20T13:05:08;4.32;;;1.35;;
58354;SDS011;44160;49.080;19.302;2023-07-20T13:07:35;6.35;;;1.10;;
58354;SDS011;44160;49.080;19.302;2023-07-20T13:10:02;2.85;;;0.93;;
58354;SDS011;44160;49.080;19.302;2023-07-20T13:12:29;1.83;;;1.08;;
58354;SDS011;44160;49.080;19.302;2023-07-20T13:14:55;3.90;;;1.42;;
58354;SDS011;44160;49.080;19.302;2023-07-20T13:17:25;3.60;;;1.17;;
58354;SDS011;44160;49.080;19.302;2023-07-20T13:19:53;8.27;;;1.35;;
58354;SDS011;44160;49.080;19.302;2023-07-20T13:22:20;2.30;;;1.00;;
58354;SDS011;44160;49.080;19.302;2023-07-20T13:24:48;4.80;;;1.90;;
58354;SDS011;44160;49.080;19.302;2023-07-20T13:27:15;2.38;;;1.23;;
58354;SDS011;44160;49.080;19.302;2023-07-20T13:29:41;2.65;;;1.40;;
58354;SDS011;44160;49.080;19.302;2023-07-20T13:32:08;3.88;;;1.02;;
58354;SDS011;44160;49.080;19.302;2023-07-20T13:34:34;2.72;;;1.10;;
58354;SDS011;44160;49.080;19.302;2023-07-20T13:37:01;2.85;;;1.25;;
58354;SDS011;44160;49.080;19.302;2023-07-20T13:39:27;1.20;;;0.98;;
58354;SDS011;44160;49.080;19.302;2023-07-20T13:41:54;3.03;;;1.40;;
58354;SDS011;44160;49.080;19.302;2023-07-20T13:44:20;3.50;;;1.00;;
58354;SDS011;44160;49.080;19.302;2023-07-20T13:46:49;6.15;;;1.60;;
58354;SDS011;44160;49.080;19.302;2023-07-20T13:49:19;4.38;;;1.13;;
58354;SDS011;44160;49.080;19.302;2023-07-20T13:51:51;1.35;;;0.90;;
58354;SDS011;44160;49.080;19.302;2023-07-20T13:54:17;1.70;;;1.20;;
58354;SDS011;44160;49.080;19.302;2023-07-20T13:56:44;2.20;;;1.73;;
58354;SDS011;44160;49.080;19.302;2023-07-20T13:59:10;7.05;;;1.55;;
58354;SDS011;44160;49.080;19.302;2023-07-20T14:01:36;2.58;;;1.30;;
58354;SDS011;44160;49.080;19.302;2023-07-20T14:04:02;3.25;;;1.30;;
58354;SDS011;44160;49.080;19.302;2023-07-20T14:06:32;2.65;;;1.00;;
58354;SDS011;44160;49.080;19.302;2023-07-20T14:08:59;1.95;;;1.20;;
58354;SDS011;44160;49.080;19.302;2023-07-20T14:11:29;1.70;;;1.00;;
58354;SDS011;44160;49.080;19.302;2023-07-20T14:13:55;2.35;;;1.17;;
58354;SDS011;44160;49.080;19.302;2023-07-20T14:16:23;1.38;;;1.00;;
58354;SDS011;44160;49.080;19.302;2023-07-20T14:18:50;2.80;;;1.30;;
58354;SDS011;44160;49.080;19.302;2023-07-20T14:21:16;1.48;;;1.00;;
58354;SDS011;44160;49.080;19.302;2023-07-20T14:23:46;1.83;;;0.98;;
58354;SDS011;44160;49.080;19.302;2023-07-20T14:26:13;3.55;;;1.25;;
58354;SDS011;44160;49.080;19.302;2023-07-20T14:28:41;1.73;;;1.00;;
58354;SDS011;44160;49.080;19.302;2023-07-20T14:31:11;1.73;;;1.20;;
58354;SDS011;44160;49.080;19.302;2023-07-20T14:33:40;3.80;;;1.27;;
58354;SDS011;44160;49.080;19.302;2023-07-20T14:36:06;2.55;;;1.20;;
58354;SDS011;44160;49.080;19.302;2023-07-20T14:38:33;2.50;;;1.05;;
58354;SDS011;44160;49.080;19.302;2023-07-20T14:41:06;3.08;;;1.20;;
58354;SDS011;44160;49.080;19.302;2023-07-20T14:43:32;2.33;;;1.13;;
58354;SDS011;44160;49.080;19.302;2023-07-20T14:45:58;1.70;;;1.20;;
58354;SDS011;44160;49.080;19.302;2023-07-20T14:48:27;2.13;;;1.20;;
58354;SDS011;44160;49.080;19.302;2023-07-20T14:50:53;1.65;;;1.30;;
58354;SDS011;44160;49.080;19.302;2023-07-20T14:53:20;2.53;;;1.25;;
58354;SDS011;44160;49.080;19.302;2023-07-20T14:55:46;1.65;;;1.15;;
58354;SDS011;44160;49.080;19.302;2023-07-20T14:58:23;2.95;;;1.30;;
58354;SDS011;44160;49.080;19.302;2023-07-20T15:00:49;3.80;;;1.42;;